sensor_id;sensor_type;location;lat;lon;timestamp;P1;durP1;ratioP1;P2;durP2;ratioP2
71777;SDS011;59609;52.430;4.668;2022-07-29T00:00:08;2.65;;;1.30;;
71777;SDS011;59609;52.430;4.668;2022-07-29T00:02:34;2.95;;;1.75;;
71777;SDS011;59609;52.430;4.668;2022-07-29T00:05:00;2.90;;;1.65;;
71777;SDS011;59609;52.430;4.668;2022-07-29T00:07:27;4.00;;;1.60;;
71777;SDS011;59609;52.430;4.668;2022-07-29T00:09:52;3.33;;;1.58;;
71777;SDS011;59609;52.430;4.668;2022-07-29T00:12:18;1.73;;;1.48;;
71777;SDS011;59609;52.430;4.668;2022-07-29T00:14:45;2.20;;;1.98;;
71777;SDS011;59609;52.430;4.668;2022-07-29T00:17:10;3.03;;;1.90;;
71777;SDS011;59609;52.430;4.668;2022-07-29T00:19:36;4.47;;;1.70;;
71777;SDS011;59609;52.430;4.668;2022-07-29T00:22:01;2.75;;;1.60;;
71777;SDS011;59609;52.430;4.668;2022-07-29T00:24:26;1.75;;;1.50;;
71777;SDS011;59609;52.430;4.668;2022-07-29T00:26:52;3.20;;;1.58;;
71777;SDS011;59609;52.430;4.668;2022-07-29T00:29:17;3.67;;;1.83;;
71777;SDS011;59609;52.430;4.668;2022-07-29T00:31:43;2.15;;;1.58;;
71777;SDS011;59609;52.430;4.668;2022-07-29T00:34:08;2.35;;;1.70;;
71777;SDS011;59609;52.430;4.668;2022-07-29T00:36:53;3.85;;;1.60;;
71777;SDS011;59609;52.430;4.668;2022-07-29T00:39:19;3.47;;;1.45;;
71777;SDS011;59609;52.430;4.668;2022-07-29T00:41:44;5.50;;;1.77;;
71777;SDS011;59609;52.430;4.668;2022-07-29T00:44:09;4.68;;;1.88;;
71777;SDS011;59609;52.430;4.668;2022-07-29T00:46:35;3.38;;;1.38;;
71777;SDS011;59609;52.430;4.668;2022-07-29T00:49:00;1.40;;;1.30;;
71777;SDS011;59609;52.430;4.668;2022-07-29T00:51:26;4.03;;;1.58;;
71777;SDS011;59609;52.430;4.668;2022-07-29T00:53:52;2.00;;;1.33;;
71777;SDS011;59609;52.430;4.668;2022-07-29T00:56:18;2.88;;;1.40;;
71777;SDS011;59609;52.430;4.668;2022-07-29T00:58:44;2.10;;;1.27;;
71777;SDS011;59609;52.430;4.668;2022-07-29T01:01:11;4.20;;;1.67;;
71777;SDS011;59609;52.430;4.668;2022-07-29T01:03:37;3.28;;;1.17;;
71777;SDS011;59609;52.430;4.668;2022-07-29T01:06:02;4.72;;;1.65;;
71777;SDS011;59609;52.430;4.668;2022-07-29T01:08:27;1.58;;;1.48;;
71777;SDS011;59609;52.430;4.668;2022-07-29T01:10:53;2.50;;;1.33;;
71777;SDS011;59609;52.430;4.668;2022-07-29T01:13:19;2.45;;;1.98;;
71777;SDS011;59609;52.430;4.668;2022-07-29T01:15:46;1.15;;;1.02;;
71777;SDS011;59609;52.430;4.668;2022-07-29T01:18:18;4.70;;;1.63;;
71777;SDS011;59609;52.430;4.668;2022-07-29T01:32:18;3.38;;;1.48;;
71777;SDS011;59609;52.430;4.668;2022-07-29T01:37:22;3.97;;;1.50;;
71777;SDS011;59609;52.430;4.668;2022-07-29T01:39:55;1.88;;;1.20;;
71777;SDS011;59609;52.430;4.668;2022-07-29T01:44:57;1.77;;;1.23;;
71777;SDS011;59609;52.430;4.668;2022-07-29T01:50:30;4.15;;;1.70;;
71777;SDS011;59609;52.430;4.668;2022-07-29T01:53:00;3.08;;;1.45;;
71777;SDS011;59609;52.430;4.668;2022-07-29T01:55:29;4.05;;;1.65;;
71777;SDS011;59609;52.430;4.668;2022-07-29T01:57:59;4.47;;;1.98;;
71777;SDS011;59609;52.430;4.668;2022-07-29T02:00:27;2.67;;;1.67;;
71777;SDS011;59609;52.430;4.668;2022-07-29T02:02:56;2.33;;;1.55;;
71777;SDS011;59609;52.430;4.668;2022-07-29T02:05:24;4.22;;;2.05;;
71777;SDS011;59609;52.430;4.668;2022-07-29T02:07:52;3.38;;;1.60;;
71777;SDS011;59609;52.430;4.668;2022-07-29T02:10:20;5.28;;;2.10;;
71777;SDS011;59609;52.430;4.668;2022-07-29T02:12:48;2.15;;;1.85;;
71777;SDS011;59609;52.430;4.668;2022-07-29T02:15:15;3.83;;;2.00;;
71777;SDS011;59609;52.430;4.668;2022-07-29T02:20:37;2.45;;;1.85;;
71777;SDS011;59609;52.430;4.668;2022-07-29T02:23:05;2.85;;;1.92;;
71777;SDS011;59609;52.430;4.668;2022-07-29T02:25:32;2.00;;;1.90;;
71777;SDS011;59609;52.430;4.668;2022-07-29T02:27:58;2.67;;;1.80;;
71777;SDS011;59609;52.430;4.668;2022-07-29T02:30:26;3.45;;;2.10;;
71777;SDS011;59609;52.430;4.668;2022-07-29T02:32:53;2.50;;;1.90;;
71777;SDS011;59609;52.430;4.668;2022-07-29T02:35:21;5.53;;;2.17;;
71777;SDS011;59609;52.430;4.668;2022-07-29T02:37:47;2.15;;;1.92;;
71777;SDS011;59609;52.430;4.668;2022-07-29T02:40:33;3.88;;;1.95;;
71777;SDS011;59609;52.430;4.668;2022-07-29T02:43:01;4.75;;;1.95;;
71777;SDS011;59609;52.430;4.668;2022-07-29T02:45:30;3.42;;;2.00;;
71777;SDS011;59609;52.430;4.668;2022-07-29T02:47:57;3.22;;;2.35;;
71777;SDS011;59609;52.430;4.668;2022-07-29T02:50:34;3.70;;;2.08;;
71777;SDS011;59609;52.430;4.668;2022-07-29T02:53:07;3.38;;;2.00;;
71777;SDS011;59609;52.430;4.668;2022-07-29T02:55:40;3.95;;;2.00;;
71777;SDS011;59609;52.430;4.668;2022-07-29T03:00:40;3.13;;;1.88;;
71777;SDS011;59609;52.430;4.668;2022-07-29T03:03:09;4.20;;;2.20;;
71777;SDS011;59609;52.430;4.668;2022-07-29T03:05:39;3.55;;;2.15;;
71777;SDS011;59609;52.430;4.668;2022-07-29T03:08:05;2.97;;;2.20;;
71777;SDS011;59609;52.430;4.668;2022-07-29T03:10:34;5.47;;;2.65;;
71777;SDS011;59609;52.430;4.668;2022-07-29T03:13:02;4.00;;;2.80;;
71777;SDS011;59609;52.430;4.668;2022-07-29T03:15:29;3.70;;;2.45;;
71777;SDS011;59609;52.430;4.668;2022-07-29T03:17:54;4.00;;;3.10;;
71777;SDS011;59609;52.430;4.668;2022-07-29T03:20:20;6.45;;;3.10;;
71777;SDS011;59609;52.430;4.668;2022-07-29T03:22:46;3.83;;;2.78;;
71777;SDS011;59609;52.430;4.668;2022-07-29T03:25:12;3.20;;;2.75;;
71777;SDS011;59609;52.430;4.668;2022-07-29T03:27:41;4.30;;;3.28;;
71777;SDS011;59609;52.430;4.668;2022-07-29T03:30:08;4.72;;;3.65;;
71777;SDS011;59609;52.430;4.668;2022-07-29T03:32:34;4.95;;;2.90;;
71777;SDS011;59609;52.430;4.668;2022-07-29T03:35:00;6.10;;;2.72;;
71777;SDS011;59609;52.430;4.668;2022-07-29T03:37:26;3.72;;;2.78;;
71777;SDS011;59609;52.430;4.668;2022-07-29T03:39:52;3.90;;;2.55;;
71777;SDS011;59609;52.430;4.668;2022-07-29T03:42:21;4.35;;;2.60;;
71777;SDS011;59609;52.430;4.668;2022-07-29T03:44:50;3.92;;;2.70;;
71777;SDS011;59609;52.430;4.668;2022-07-29T03:47:17;5.20;;;2.55;;
71777;SDS011;59609;52.430;4.668;2022-07-29T03:49:48;4.50;;;2.55;;
71777;SDS011;59609;52.430;4.668;2022-07-29T03:52:16;5.93;;;2.97;;
71777;SDS011;59609;52.430;4.668;2022-07-29T03:54:42;6.25;;;2.40;;
71777;SDS011;59609;52.430;4.668;2022-07-29T03:57:08;3.35;;;2.47;;
71777;SDS011;59609;52.430;4.668;2022-07-29T03:59:36;3.30;;;2.72;;
71777;SDS011;59609;52.430;4.668;2022-07-29T04:02:03;6.78;;;2.60;;
71777;SDS011;59609;52.430;4.668;2022-07-29T04:04:32;3.80;;;2.40;;
71777;SDS011;59609;52.430;4.668;2022-07-29T04:06:58;3.10;;;2.60;;
71777;SDS011;59609;52.430;4.668;2022-07-29T04:09:23;5.30;;;2.50;;
71777;SDS011;59609;52.430;4.668;2022-07-29T04:11:49;5.55;;;2.60;;
71777;SDS011;59609;52.430;4.668;2022-07-29T04:14:15;4.75;;;2.22;;
71777;SDS011;59609;52.430;4.668;2022-07-29T04:16:40;7.80;;;2.70;;
71777;SDS011;59609;52.430;4.668;2022-07-29T04:19:05;3.35;;;2.75;;
71777;SDS011;59609;52.430;4.668;2022-07-29T04:21:31;4.32;;;2.53;;
71777;SDS011;59609;52.430;4.668;2022-07-29T04:24:01;3.03;;;2.50;;
71777;SDS011;59609;52.430;4.668;2022-07-29T04:26:26;6.63;;;2.55;;
71777;SDS011;59609;52.430;4.668;2022-07-29T04:28:52;4.28;;;2.85;;
71777;SDS011;59609;52.430;4.668;2022-07-29T04:31:17;6.57;;;2.53;;
71777;SDS011;59609;52.430;4.668;2022-07-29T04:33:42;3.75;;;2.85;;
71777;SDS011;59609;52.430;4.668;2022-07-29T04:36:08;2.47;;;2.28;;
71777;SDS011;59609;52.430;4.668;2022-07-29T04:38:33;2.42;;;2.08;;
71777;SDS011;59609;52.430;4.668;2022-07-29T04:40:58;2.60;;;2.30;;
71777;SDS011;59609;52.430;4.668;2022-07-29T04:43:24;4.95;;;2.90;;
71777;SDS011;59609;52.430;4.668;2022-07-29T04:45:49;4.47;;;2.40;;
71777;SDS011;59609;52.430;4.668;2022-07-29T04:48:15;4.18;;;2.53;;
71777;SDS011;59609;52.430;4.668;2022-07-29T04:50:40;3.80;;;2.38;;
71777;SDS011;59609;52.430;4.668;2022-07-29T04:53:06;2.35;;;2.13;;
71777;SDS011;59609;52.430;4.668;2022-07-29T04:55:32;3.20;;;2.40;;
71777;SDS011;59609;52.430;4.668;2022-07-29T04:57:58;5.88;;;2.85;;
71777;SDS011;59609;52.430;4.668;2022-07-29T05:00:23;4.65;;;2.42;;
71777;SDS011;59609;52.430;4.668;2022-07-29T05:02:49;2.40;;;2.20;;
71777;SDS011;59609;52.430;4.668;2022-07-29T05:05:14;4.25;;;2.42;;
71777;SDS011;59609;52.430;4.668;2022-07-29T05:07:40;4.00;;;2.15;;
71777;SDS011;59609;52.430;4.668;2022-07-29T05:10:06;3.28;;;2.65;;
71777;SDS011;59609;52.430;4.668;2022-07-29T05:12:32;5.53;;;2.72;;
71777;SDS011;59609;52.430;4.668;2022-07-29T05:14:57;3.15;;;2.20;;
71777;SDS011;59609;52.430;4.668;2022-07-29T05:17:23;6.18;;;2.30;;
71777;SDS011;59609;52.430;4.668;2022-07-29T05:19:48;4.50;;;2.55;;
71777;SDS011;59609;52.430;4.668;2022-07-29T05:22:16;2.63;;;2.00;;
71777;SDS011;59609;52.430;4.668;2022-07-29T05:24:41;3.78;;;2.10;;
71777;SDS011;59609;52.430;4.668;2022-07-29T05:27:07;5.18;;;2.28;;
71777;SDS011;59609;52.430;4.668;2022-07-29T05:29:32;3.80;;;1.98;;
71777;SDS011;59609;52.430;4.668;2022-07-29T05:31:57;3.90;;;2.25;;
71777;SDS011;59609;52.430;4.668;2022-07-29T05:34:23;3.53;;;2.10;;
71777;SDS011;59609;52.430;4.668;2022-07-29T05:36:49;5.03;;;2.53;;
71777;SDS011;59609;52.430;4.668;2022-07-29T05:39:15;2.78;;;2.20;;
71777;SDS011;59609;52.430;4.668;2022-07-29T05:41:41;3.25;;;1.80;;
71777;SDS011;59609;52.430;4.668;2022-07-29T05:44:06;2.10;;;1.90;;
71777;SDS011;59609;52.430;4.668;2022-07-29T05:46:32;3.78;;;2.20;;
71777;SDS011;59609;52.430;4.668;2022-07-29T05:48:57;5.03;;;2.45;;
71777;SDS011;59609;52.430;4.668;2022-07-29T05:51:22;2.92;;;2.42;;
71777;SDS011;59609;52.430;4.668;2022-07-29T05:53:48;4.85;;;2.38;;
71777;SDS011;59609;52.430;4.668;2022-07-29T05:56:13;2.30;;;1.85;;
71777;SDS011;59609;52.430;4.668;2022-07-29T05:58:38;3.28;;;2.03;;
71777;SDS011;59609;52.430;4.668;2022-07-29T06:01:04;2.83;;;2.22;;
71777;SDS011;59609;52.430;4.668;2022-07-29T06:03:29;4.40;;;2.22;;
71777;SDS011;59609;52.430;4.668;2022-07-29T06:05:55;6.13;;;2.47;;
71777;SDS011;59609;52.430;4.668;2022-07-29T06:08:20;6.63;;;2.25;;
71777;SDS011;59609;52.430;4.668;2022-07-29T06:10:46;4.75;;;2.30;;
71777;SDS011;59609;52.430;4.668;2022-07-29T06:13:11;3.10;;;2.42;;
71777;SDS011;59609;52.430;4.668;2022-07-29T06:15:37;4.70;;;2.15;;
71777;SDS011;59609;52.430;4.668;2022-07-29T06:18:03;5.65;;;2.58;;
71777;SDS011;59609;52.430;4.668;2022-07-29T06:20:28;3.70;;;2.25;;
71777;SDS011;59609;52.430;4.668;2022-07-29T06:22:55;3.30;;;2.42;;
71777;SDS011;59609;52.430;4.668;2022-07-29T06:25:21;2.70;;;2.50;;
71777;SDS011;59609;52.430;4.668;2022-07-29T06:27:46;2.72;;;2.20;;
71777;SDS011;59609;52.430;4.668;2022-07-29T06:30:12;5.18;;;2.35;;
71777;SDS011;59609;52.430;4.668;2022-07-29T06:32:37;5.05;;;2.00;;
71777;SDS011;59609;52.430;4.668;2022-07-29T06:35:03;2.67;;;2.33;;
71777;SDS011;59609;52.430;4.668;2022-07-29T06:37:28;3.22;;;1.92;;
71777;SDS011;59609;52.430;4.668;2022-07-29T06:39:53;2.67;;;2.05;;
71777;SDS011;59609;52.430;4.668;2022-07-29T06:42:41;4.05;;;2.22;;
71777;SDS011;59609;52.430;4.668;2022-07-29T06:45:07;2.53;;;2.33;;
71777;SDS011;59609;52.430;4.668;2022-07-29T06:47:32;3.13;;;2.03;;
71777;SDS011;59609;52.430;4.668;2022-07-29T06:49:58;2.72;;;1.95;;
71777;SDS011;59609;52.430;4.668;2022-07-29T06:52:23;2.97;;;1.90;;
71777;SDS011;59609;52.430;4.668;2022-07-29T06:54:50;3.53;;;2.35;;
71777;SDS011;59609;52.430;4.668;2022-07-29T06:57:15;3.28;;;1.98;;
71777;SDS011;59609;52.430;4.668;2022-07-29T06:59:41;3.80;;;1.98;;
71777;SDS011;59609;52.430;4.668;2022-07-29T07:02:06;3.85;;;2.42;;
71777;SDS011;59609;52.430;4.668;2022-07-29T07:04:31;3.60;;;2.35;;
71777;SDS011;59609;52.430;4.668;2022-07-29T07:06:57;3.30;;;2.10;;
71777;SDS011;59609;52.430;4.668;2022-07-29T07:09:22;3.95;;;2.13;;
71777;SDS011;59609;52.430;4.668;2022-07-29T07:11:48;4.25;;;1.90;;
71777;SDS011;59609;52.430;4.668;2022-07-29T07:14:13;4.07;;;1.80;;
71777;SDS011;59609;52.430;4.668;2022-07-29T07:16:38;2.70;;;2.05;;
71777;SDS011;59609;52.430;4.668;2022-07-29T07:19:04;6.32;;;2.05;;
71777;SDS011;59609;52.430;4.668;2022-07-29T07:21:29;4.35;;;1.88;;
71777;SDS011;59609;52.430;4.668;2022-07-29T07:23:54;2.30;;;1.90;;
71777;SDS011;59609;52.430;4.668;2022-07-29T07:26:20;7.03;;;2.05;;
71777;SDS011;59609;52.430;4.668;2022-07-29T07:28:45;2.92;;;2.10;;
71777;SDS011;59609;52.430;4.668;2022-07-29T07:31:11;2.38;;;2.00;;
71777;SDS011;59609;52.430;4.668;2022-07-29T07:33:37;5.25;;;2.03;;
71777;SDS011;59609;52.430;4.668;2022-07-29T07:36:02;6.38;;;2.10;;
71777;SDS011;59609;52.430;4.668;2022-07-29T07:38:28;2.95;;;1.90;;
71777;SDS011;59609;52.430;4.668;2022-07-29T07:40:53;3.58;;;2.10;;
71777;SDS011;59609;52.430;4.668;2022-07-29T07:43:19;4.15;;;2.00;;
71777;SDS011;59609;52.430;4.668;2022-07-29T07:45:44;2.38;;;1.70;;
71777;SDS011;59609;52.430;4.668;2022-07-29T07:48:09;2.80;;;1.83;;
71777;SDS011;59609;52.430;4.668;2022-07-29T07:50:35;5.40;;;2.30;;
71777;SDS011;59609;52.430;4.668;2022-07-29T07:53:02;4.40;;;1.83;;
71777;SDS011;59609;52.430;4.668;2022-07-29T07:55:27;3.75;;;2.10;;
71777;SDS011;59609;52.430;4.668;2022-07-29T07:57:53;6.38;;;2.22;;
71777;SDS011;59609;52.430;4.668;2022-07-29T08:00:19;5.10;;;2.25;;
71777;SDS011;59609;52.430;4.668;2022-07-29T08:02:46;5.60;;;1.90;;
71777;SDS011;59609;52.430;4.668;2022-07-29T08:05:11;3.85;;;2.00;;
71777;SDS011;59609;52.430;4.668;2022-07-29T08:07:41;2.97;;;1.73;;
71777;SDS011;59609;52.430;4.668;2022-07-29T08:10:07;4.15;;;2.40;;
71777;SDS011;59609;52.430;4.668;2022-07-29T08:12:32;4.45;;;2.20;;
71777;SDS011;59609;52.430;4.668;2022-07-29T08:14:57;2.08;;;1.88;;
71777;SDS011;59609;52.430;4.668;2022-07-29T08:17:23;4.38;;;2.00;;
71777;SDS011;59609;52.430;4.668;2022-07-29T08:19:48;7.18;;;2.40;;
71777;SDS011;59609;52.430;4.668;2022-07-29T08:22:14;3.45;;;1.98;;
71777;SDS011;59609;52.430;4.668;2022-07-29T08:24:40;5.65;;;2.10;;
71777;SDS011;59609;52.430;4.668;2022-07-29T08:27:08;4.30;;;2.08;;
71777;SDS011;59609;52.430;4.668;2022-07-29T08:29:37;4.30;;;2.50;;
71777;SDS011;59609;52.430;4.668;2022-07-29T08:32:03;5.22;;;2.17;;
71777;SDS011;59609;52.430;4.668;2022-07-29T08:34:29;3.88;;;2.45;;
71777;SDS011;59609;52.430;4.668;2022-07-29T08:36:55;4.68;;;2.20;;
71777;SDS011;59609;52.430;4.668;2022-07-29T08:39:21;2.97;;;2.35;;
71777;SDS011;59609;52.430;4.668;2022-07-29T08:41:47;7.15;;;2.35;;
71777;SDS011;59609;52.430;4.668;2022-07-29T08:44:13;5.53;;;2.08;;
71777;SDS011;59609;52.430;4.668;2022-07-29T08:46:41;7.88;;;2.53;;
71777;SDS011;59609;52.430;4.668;2022-07-29T08:49:07;3.67;;;2.28;;
71777;SDS011;59609;52.430;4.668;2022-07-29T08:51:32;5.15;;;2.60;;
71777;SDS011;59609;52.430;4.668;2022-07-29T08:54:00;5.47;;;3.15;;
71777;SDS011;59609;52.430;4.668;2022-07-29T08:56:26;3.17;;;2.00;;
71777;SDS011;59609;52.430;4.668;2022-07-29T08:58:52;4.82;;;2.50;;
71777;SDS011;59609;52.430;4.668;2022-07-29T09:01:22;7.55;;;2.15;;
71777;SDS011;59609;52.430;4.668;2022-07-29T09:03:49;4.00;;;2.22;;
71777;SDS011;59609;52.430;4.668;2022-07-29T09:06:17;4.72;;;2.53;;
71777;SDS011;59609;52.430;4.668;2022-07-29T09:08:43;3.22;;;2.38;;
71777;SDS011;59609;52.430;4.668;2022-07-29T09:11:09;11.82;;;2.70;;
71777;SDS011;59609;52.430;4.668;2022-07-29T09:13:36;3.13;;;2.40;;
71777;SDS011;59609;52.430;4.668;2022-07-29T09:16:01;4.82;;;2.30;;
71777;SDS011;59609;52.430;4.668;2022-07-29T09:18:34;3.42;;;1.83;;
71777;SDS011;59609;52.430;4.668;2022-07-29T09:21:01;4.30;;;2.80;;
71777;SDS011;59609;52.430;4.668;2022-07-29T09:26:32;9.15;;;2.80;;
71777;SDS011;59609;52.430;4.668;2022-07-29T09:28:59;6.90;;;2.00;;
71777;SDS011;59609;52.430;4.668;2022-07-29T09:31:34;6.45;;;2.58;;
71777;SDS011;59609;52.430;4.668;2022-07-29T09:34:00;5.13;;;2.75;;
71777;SDS011;59609;52.430;4.668;2022-07-29T09:36:26;4.95;;;2.92;;
71777;SDS011;59609;52.430;4.668;2022-07-29T09:38:58;4.60;;;2.72;;
71777;SDS011;59609;52.430;4.668;2022-07-29T09:41:28;6.85;;;2.75;;
71777;SDS011;59609;52.430;4.668;2022-07-29T09:43:58;4.03;;;2.75;;
71777;SDS011;59609;52.430;4.668;2022-07-29T09:46:24;6.18;;;3.05;;
71777;SDS011;59609;52.430;4.668;2022-07-29T09:49:10;2.90;;;2.67;;
71777;SDS011;59609;52.430;4.668;2022-07-29T09:51:37;4.43;;;2.53;;
71777;SDS011;59609;52.430;4.668;2022-07-29T09:56:51;4.88;;;2.80;;
71777;SDS011;59609;52.430;4.668;2022-07-29T09:59:18;4.75;;;2.63;;
71777;SDS011;59609;52.430;4.668;2022-07-29T10:01:45;5.18;;;2.60;;
71777;SDS011;59609;52.430;4.668;2022-07-29T10:04:11;3.97;;;2.63;;
71777;SDS011;59609;52.430;4.668;2022-07-29T10:06:43;4.80;;;2.95;;
71777;SDS011;59609;52.430;4.668;2022-07-29T10:09:20;4.18;;;2.30;;
71777;SDS011;59609;52.430;4.668;2022-07-29T10:12:01;4.38;;;2.70;;
71777;SDS011;59609;52.430;4.668;2022-07-29T10:14:32;4.85;;;2.85;;
71777;SDS011;59609;52.430;4.668;2022-07-29T10:16:59;3.13;;;2.17;;
71777;SDS011;59609;52.430;4.668;2022-07-29T10:19:26;7.25;;;3.05;;
71777;SDS011;59609;52.430;4.668;2022-07-29T10:21:53;7.75;;;2.65;;
71777;SDS011;59609;52.430;4.668;2022-07-29T10:24:18;5.35;;;3.08;;
71777;SDS011;59609;52.430;4.668;2022-07-29T10:26:45;7.22;;;2.78;;
71777;SDS011;59609;52.430;4.668;2022-07-29T10:29:12;10.60;;;3.88;;
71777;SDS011;59609;52.430;4.668;2022-07-29T10:32:02;7.80;;;2.88;;
71777;SDS011;59609;52.430;4.668;2022-07-29T10:43:13;3.97;;;2.50;;
71777;SDS011;59609;52.430;4.668;2022-07-29T10:45:43;9.70;;;2.13;;
71777;SDS011;59609;52.430;4.668;2022-07-29T10:48:11;9.98;;;2.90;;
71777;SDS011;59609;52.430;4.668;2022-07-29T10:53:45;7.97;;;2.75;;
71777;SDS011;59609;52.430;4.668;2022-07-29T10:59:36;4.75;;;3.20;;
71777;SDS011;59609;52.430;4.668;2022-07-29T11:01:46;3.22;;;2.80;;
71777;SDS011;59609;52.430;4.668;2022-07-29T11:04:12;4.10;;;2.95;;
71777;SDS011;59609;52.430;4.668;2022-07-29T11:09:34;6.45;;;2.40;;
71777;SDS011;59609;52.430;4.668;2022-07-29T11:12:00;5.03;;;2.78;;
71777;SDS011;59609;52.430;4.668;2022-07-29T11:17:19;5.32;;;3.13;;
71777;SDS011;59609;52.430;4.668;2022-07-29T11:19:45;6.57;;;2.95;;
71777;SDS011;59609;52.430;4.668;2022-07-29T11:22:11;5.60;;;3.08;;
71777;SDS011;59609;52.430;4.668;2022-07-29T11:25:15;5.65;;;3.20;;
71777;SDS011;59609;52.430;4.668;2022-07-29T11:27:42;4.60;;;3.00;;
71777;SDS011;59609;52.430;4.668;2022-07-29T11:30:09;6.32;;;2.78;;
71777;SDS011;59609;52.430;4.668;2022-07-29T11:32:37;12.38;;;3.38;;
71777;SDS011;59609;52.430;4.668;2022-07-29T11:37:36;5.50;;;3.47;;
71777;SDS011;59609;52.430;4.668;2022-07-29T11:47:46;5.25;;;2.97;;
71777;SDS011;59609;52.430;4.668;2022-07-29T11:50:15;5.82;;;2.90;;
71777;SDS011;59609;52.430;4.668;2022-07-29T11:53:11;3.88;;;2.60;;
71777;SDS011;59609;52.430;4.668;2022-07-29T11:55:38;6.53;;;2.58;;
71777;SDS011;59609;52.430;4.668;2022-07-29T11:58:05;5.90;;;2.97;;
71777;SDS011;59609;52.430;4.668;2022-07-29T12:00:32;5.07;;;2.60;;
71777;SDS011;59609;52.430;4.668;2022-07-29T12:03:05;5.38;;;2.63;;
71777;SDS011;59609;52.430;4.668;2022-07-29T12:05:33;5.38;;;2.75;;
71777;SDS011;59609;52.430;4.668;2022-07-29T12:08:07;5.22;;;3.30;;
71777;SDS011;59609;52.430;4.668;2022-07-29T12:10:34;5.47;;;2.67;;
71777;SDS011;59609;52.430;4.668;2022-07-29T12:12:59;4.70;;;2.50;;
71777;SDS011;59609;52.430;4.668;2022-07-29T12:15:25;4.75;;;2.90;;
71777;SDS011;59609;52.430;4.668;2022-07-29T12:17:51;5.60;;;2.80;;
71777;SDS011;59609;52.430;4.668;2022-07-29T12:20:24;5.72;;;3.22;;
71777;SDS011;59609;52.430;4.668;2022-07-29T12:25:18;6.72;;;3.15;;
71777;SDS011;59609;52.430;4.668;2022-07-29T12:27:44;5.20;;;3.10;;
71777;SDS011;59609;52.430;4.668;2022-07-29T12:30:11;4.53;;;3.00;;
71777;SDS011;59609;52.430;4.668;2022-07-29T12:32:39;3.85;;;2.97;;
71777;SDS011;59609;52.430;4.668;2022-07-29T12:37:45;5.35;;;3.05;;
71777;SDS011;59609;52.430;4.668;2022-07-29T12:40:13;6.82;;;2.75;;
71777;SDS011;59609;52.430;4.668;2022-07-29T12:42:41;5.07;;;2.72;;
71777;SDS011;59609;52.430;4.668;2022-07-29T12:45:31;5.45;;;2.80;;
71777;SDS011;59609;52.430;4.668;2022-07-29T12:47:56;4.05;;;2.80;;
71777;SDS011;59609;52.430;4.668;2022-07-29T12:50:22;4.05;;;2.90;;
71777;SDS011;59609;52.430;4.668;2022-07-29T12:52:48;3.50;;;2.60;;
71777;SDS011;59609;52.430;4.668;2022-07-29T12:55:13;6.03;;;2.88;;
71777;SDS011;59609;52.430;4.668;2022-07-29T12:57:50;5.18;;;2.83;;
71777;SDS011;59609;52.430;4.668;2022-07-29T13:00:21;3.90;;;3.60;;
71777;SDS011;59609;52.430;4.668;2022-07-29T13:02:53;6.97;;;2.78;;
71777;SDS011;59609;52.430;4.668;2022-07-29T13:05:20;5.30;;;2.70;;
71777;SDS011;59609;52.430;4.668;2022-07-29T13:07:46;7.10;;;3.03;;
71777;SDS011;59609;52.430;4.668;2022-07-29T13:10:15;7.18;;;2.97;;
71777;SDS011;59609;52.430;4.668;2022-07-29T13:15:27;8.63;;;2.65;;
71777;SDS011;59609;52.430;4.668;2022-07-29T13:17:52;5.68;;;3.15;;
71777;SDS011;59609;52.430;4.668;2022-07-29T13:20:17;4.47;;;2.95;;
71777;SDS011;59609;52.430;4.668;2022-07-29T13:22:47;4.10;;;2.97;;
71777;SDS011;59609;52.430;4.668;2022-07-29T13:25:13;3.38;;;3.05;;
71777;SDS011;59609;52.430;4.668;2022-07-29T13:27:38;4.00;;;2.15;;
71777;SDS011;59609;52.430;4.668;2022-07-29T13:30:07;5.20;;;2.22;;
71777;SDS011;59609;52.430;4.668;2022-07-29T13:32:34;4.85;;;2.50;;
71777;SDS011;59609;52.430;4.668;2022-07-29T13:35:02;4.45;;;2.47;;
71777;SDS011;59609;52.430;4.668;2022-07-29T13:37:30;5.60;;;2.88;;
71777;SDS011;59609;52.430;4.668;2022-07-29T13:39:57;5.18;;;2.20;;
71777;SDS011;59609;52.430;4.668;2022-07-29T13:42:24;6.35;;;3.00;;
71777;SDS011;59609;52.430;4.668;2022-07-29T13:44:49;4.50;;;3.78;;
71777;SDS011;59609;52.430;4.668;2022-07-29T13:47:16;4.57;;;2.78;;
71777;SDS011;59609;52.430;4.668;2022-07-29T13:49:42;5.15;;;2.80;;
71777;SDS011;59609;52.430;4.668;2022-07-29T13:52:08;4.95;;;3.10;;
71777;SDS011;59609;52.430;4.668;2022-07-29T13:54:33;4.53;;;2.75;;
71777;SDS011;59609;52.430;4.668;2022-07-29T13:57:02;2.95;;;2.25;;
71777;SDS011;59609;52.430;4.668;2022-07-29T13:59:28;8.52;;;2.65;;
71777;SDS011;59609;52.430;4.668;2022-07-29T14:01:53;5.40;;;2.40;;
71777;SDS011;59609;52.430;4.668;2022-07-29T14:04:19;6.15;;;2.58;;
71777;SDS011;59609;52.430;4.668;2022-07-29T14:06:44;3.47;;;2.80;;
71777;SDS011;59609;52.430;4.668;2022-07-29T14:09:09;4.22;;;2.65;;
71777;SDS011;59609;52.430;4.668;2022-07-29T14:11:35;4.45;;;2.85;;
71777;SDS011;59609;52.430;4.668;2022-07-29T14:14:00;4.63;;;2.78;;
71777;SDS011;59609;52.430;4.668;2022-07-29T14:16:26;6.88;;;2.72;;
71777;SDS011;59609;52.430;4.668;2022-07-29T14:18:54;5.72;;;3.20;;
71777;SDS011;59609;52.430;4.668;2022-07-29T14:21:19;7.65;;;3.55;;
71777;SDS011;59609;52.430;4.668;2022-07-29T14:23:44;5.07;;;2.22;;
71777;SDS011;59609;52.430;4.668;2022-07-29T14:26:10;5.90;;;2.15;;
71777;SDS011;59609;52.430;4.668;2022-07-29T14:28:35;4.97;;;2.47;;
71777;SDS011;59609;52.430;4.668;2022-07-29T14:31:00;9.20;;;2.15;;
71777;SDS011;59609;52.430;4.668;2022-07-29T14:33:26;5.65;;;2.78;;
71777;SDS011;59609;52.430;4.668;2022-07-29T14:35:51;7.25;;;2.60;;
71777;SDS011;59609;52.430;4.668;2022-07-29T14:38:16;4.30;;;2.53;;
71777;SDS011;59609;52.430;4.668;2022-07-29T14:40:42;4.93;;;2.55;;
71777;SDS011;59609;52.430;4.668;2022-07-29T14:43:07;11.20;;;2.95;;
71777;SDS011;59609;52.430;4.668;2022-07-29T14:45:32;5.50;;;3.00;;
71777;SDS011;59609;52.430;4.668;2022-07-29T14:47:58;5.93;;;2.58;;
71777;SDS011;59609;52.430;4.668;2022-07-29T14:50:24;6.05;;;3.08;;
71777;SDS011;59609;52.430;4.668;2022-07-29T14:52:51;5.18;;;2.78;;
71777;SDS011;59609;52.430;4.668;2022-07-29T14:55:16;6.45;;;3.38;;
71777;SDS011;59609;52.430;4.668;2022-07-29T14:57:42;4.18;;;2.67;;
71777;SDS011;59609;52.430;4.668;2022-07-29T15:00:07;7.28;;;2.92;;
71777;SDS011;59609;52.430;4.668;2022-07-29T15:02:34;5.35;;;2.65;;
71777;SDS011;59609;52.430;4.668;2022-07-29T15:04:59;5.53;;;2.70;;
71777;SDS011;59609;52.430;4.668;2022-07-29T15:07:25;6.03;;;3.20;;
71777;SDS011;59609;52.430;4.668;2022-07-29T15:09:50;5.20;;;2.72;;
71777;SDS011;59609;52.430;4.668;2022-07-29T15:12:16;7.90;;;3.30;;
71777;SDS011;59609;52.430;4.668;2022-07-29T15:14:41;3.95;;;2.45;;
71777;SDS011;59609;52.430;4.668;2022-07-29T15:17:07;7.03;;;2.83;;
71777;SDS011;59609;52.430;4.668;2022-07-29T15:19:32;3.45;;;3.15;;
71777;SDS011;59609;52.430;4.668;2022-07-29T15:22:06;4.38;;;2.40;;
71777;SDS011;59609;52.430;4.668;2022-07-29T15:24:31;5.35;;;2.63;;
71777;SDS011;59609;52.430;4.668;2022-07-29T15:26:56;5.97;;;3.13;;
71777;SDS011;59609;52.430;4.668;2022-07-29T15:29:22;8.95;;;2.60;;
71777;SDS011;59609;52.430;4.668;2022-07-29T15:31:47;3.60;;;2.78;;
71777;SDS011;59609;52.430;4.668;2022-07-29T15:34:13;7.13;;;3.00;;
71777;SDS011;59609;52.430;4.668;2022-07-29T15:36:38;7.07;;;2.72;;
71777;SDS011;59609;52.430;4.668;2022-07-29T15:39:04;5.22;;;2.90;;
71777;SDS011;59609;52.430;4.668;2022-07-29T15:41:29;7.13;;;3.15;;
71777;SDS011;59609;52.430;4.668;2022-07-29T15:43:55;6.95;;;3.00;;
71777;SDS011;59609;52.430;4.668;2022-07-29T15:46:20;7.85;;;3.05;;
71777;SDS011;59609;52.430;4.668;2022-07-29T15:49:04;6.72;;;2.92;;
71777;SDS011;59609;52.430;4.668;2022-07-29T15:51:31;6.25;;;2.85;;
71777;SDS011;59609;52.430;4.668;2022-07-29T15:53:57;6.13;;;3.05;;
71777;SDS011;59609;52.430;4.668;2022-07-29T15:56:23;7.05;;;3.08;;